Terminal Aerodrome Forecast
Issued by NWS Topeka, KS

Home | Current Version | Previous Version | Text Only | Print | Product List | Glossary Off
Versions: 1 2 3 4 5 6 7 8 9 10 11 12 13 14 15 16 17 18 19 20 21 22 23 24 25 26 27 28 29 30 31

649
FTUS43 KTOP 201923 AAA
TAFTOP
TAF AMD
KTOP 201923Z 2019/2118 11006KT 1/2SM FG OVC003
     FM202200 13006KT 5SM BR OVC008
     FM210300 17005KT 6SM BR BKN025
     FM210700 19005KT 4SM BR BKN007
     FM211600 23006KT P6SM SCT030=

USA.gov is the U.S. government's official web portal to all federal, state and local government web resources and services.